sensor_id;sensor_type;location;lat;lon;timestamp;pressure;altitude;pressure_sealevel;temperature;humidity
20656;BME280;10487;53.320;8.672;2022-11-20T00:02:35;101042.00;;;-0.12;63.22
20656;BME280;10487;53.320;8.672;2022-11-20T00:05:37;101037.66;;;-0.13;63.48
20656;BME280;10487;53.320;8.672;2022-11-20T00:08:38;101035.16;;;-0.17;63.16
20656;BME280;10487;53.320;8.672;2022-11-20T00:11:40;101051.81;;;-0.20;63.33
20656;BME280;10487;53.320;8.672;2022-11-20T00:14:42;101044.84;;;-0.21;63.37
20656;BME280;10487;53.320;8.672;2022-11-20T00:17:43;101043.13;;;-0.22;63.48
20656;BME280;10487;53.320;8.672;2022-11-20T00:20:45;101046.63;;;-0.21;63.51
20656;BME280;10487;53.320;8.672;2022-11-20T00:23:47;101044.03;;;-0.23;63.56
20656;BME280;10487;53.320;8.672;2022-11-20T00:26:49;101040.53;;;-0.23;63.48
20656;BME280;10487;53.320;8.672;2022-11-20T00:29:51;101036.16;;;-0.23;63.64
20656;BME280;10487;53.320;8.672;2022-11-20T00:32:52;101036.16;;;-0.23;63.67
20656;BME280;10487;53.320;8.672;2022-11-20T00:35:59;101040.50;;;-0.22;63.76
20656;BME280;10487;53.320;8.672;2022-11-20T00:39:00;101042.25;;;-0.22;63.68
20656;BME280;10487;53.320;8.672;2022-11-20T00:42:02;101048.38;;;-0.22;63.59
20656;BME280;10487;53.320;8.672;2022-11-20T00:45:04;101040.53;;;-0.23;63.51
20656;BME280;10487;53.320;8.672;2022-11-20T00:48:06;101039.69;;;-0.24;63.65
20656;BME280;10487;53.320;8.672;2022-11-20T00:51:08;101034.44;;;-0.24;63.57
20656;BME280;10487;53.320;8.672;2022-11-20T00:54:10;101036.19;;;-0.24;63.71
20656;BME280;10487;53.320;8.672;2022-11-20T00:57:11;101026.56;;;-0.24;63.51
20656;BME280;10487;53.320;8.672;2022-11-20T01:00:13;101022.16;;;-0.23;63.60
20656;BME280;10487;53.320;8.672;2022-11-20T01:03:16;101031.84;;;-0.25;63.72
20656;BME280;10487;53.320;8.672;2022-11-20T01:06:25;101022.22;;;-0.25;63.68
20656;BME280;10487;53.320;8.672;2022-11-20T01:09:27;101023.09;;;-0.24;63.88
20656;BME280;10487;53.320;8.672;2022-11-20T01:12:29;101029.19;;;-0.24;63.73
20656;BME280;10487;53.320;8.672;2022-11-20T01:15:33;101019.53;;;-0.23;63.81
20656;BME280;10487;53.320;8.672;2022-11-20T01:18:37;101011.66;;;-0.22;63.61
20656;BME280;10487;53.320;8.672;2022-11-20T01:21:41;101008.16;;;-0.22;63.59
20656;BME280;10487;53.320;8.672;2022-11-20T01:24:43;101009.94;;;-0.23;63.78
20656;BME280;10487;53.320;8.672;2022-11-20T01:27:44;101009.09;;;-0.25;63.46
20656;BME280;10487;53.320;8.672;2022-11-20T01:30:46;100997.75;;;-0.25;63.81
20656;BME280;10487;53.320;8.672;2022-11-20T01:33:49;101001.25;;;-0.25;63.70
20656;BME280;10487;53.320;8.672;2022-11-20T01:36:51;101003.84;;;-0.25;63.66
20656;BME280;10487;53.320;8.672;2022-11-20T01:39:53;101007.38;;;-0.26;63.79
20656;BME280;10487;53.320;8.672;2022-11-20T01:43:09;100998.66;;;-0.26;63.79
20656;BME280;10487;53.320;8.672;2022-11-20T01:46:23;100987.31;;;-0.28;63.76
20656;BME280;10487;53.320;8.672;2022-11-20T01:49:39;100993.50;;;-0.29;63.67
20656;BME280;10487;53.320;8.672;2022-11-20T01:53:09;100993.50;;;-0.29;63.70
20656;BME280;10487;53.320;8.672;2022-11-20T01:56:14;100990.88;;;-0.31;63.87
20656;BME280;10487;53.320;8.672;2022-11-20T01:59:18;100993.50;;;-0.31;63.84
20656;BME280;10487;53.320;8.672;2022-11-20T02:02:21;100995.28;;;-0.31;63.79
20656;BME280;10487;53.320;8.672;2022-11-20T02:05:35;100995.38;;;-0.34;63.61
20656;BME280;10487;53.320;8.672;2022-11-20T02:08:39;100982.31;;;-0.37;63.91
20656;BME280;10487;53.320;8.672;2022-11-20T02:11:41;100978.84;;;-0.38;63.84
20656;BME280;10487;53.320;8.672;2022-11-20T02:14:43;100972.72;;;-0.38;63.72
20656;BME280;10487;53.320;8.672;2022-11-20T02:17:45;100973.59;;;-0.38;63.73
20656;BME280;10487;53.320;8.672;2022-11-20T02:20:48;100977.97;;;-0.38;63.98
20656;BME280;10487;53.320;8.672;2022-11-20T02:27:09;100970.16;;;-0.40;63.80
20656;BME280;10487;53.320;8.672;2022-11-20T02:30:11;100967.59;;;-0.42;63.74
20656;BME280;10487;53.320;8.672;2022-11-20T02:33:13;100966.66;;;-0.41;63.92
20656;BME280;10487;53.320;8.672;2022-11-20T02:36:15;100960.56;;;-0.41;63.83
20656;BME280;10487;53.320;8.672;2022-11-20T02:39:18;100968.41;;;-0.41;63.92
20656;BME280;10487;53.320;8.672;2022-11-20T02:42:21;100970.16;;;-0.40;63.96
20656;BME280;10487;53.320;8.672;2022-11-20T02:45:23;100959.66;;;-0.40;64.02
20656;BME280;10487;53.320;8.672;2022-11-20T02:48:25;100952.69;;;-0.41;64.04
20656;BME280;10487;53.320;8.672;2022-11-20T02:51:32;100958.78;;;-0.41;63.79
20656;BME280;10487;53.320;8.672;2022-11-20T02:54:34;100953.56;;;-0.41;63.90
20656;BME280;10487;53.320;8.672;2022-11-20T02:57:36;100950.91;;;-0.39;63.93
20656;BME280;10487;53.320;8.672;2022-11-20T03:00:37;100935.19;;;-0.41;63.83
20656;BME280;10487;53.320;8.672;2022-11-20T03:03:39;100943.94;;;-0.40;64.09
20656;BME280;10487;53.320;8.672;2022-11-20T03:06:40;100942.19;;;-0.39;64.08
20656;BME280;10487;53.320;8.672;2022-11-20T03:09:42;100938.69;;;-0.40;63.83
20656;BME280;10487;53.320;8.672;2022-11-20T03:12:43;100943.06;;;-0.41;64.05
20656;BME280;10487;53.320;8.672;2022-11-20T03:15:45;100935.19;;;-0.41;63.86
20656;BME280;10487;53.320;8.672;2022-11-20T03:18:47;100932.56;;;-0.41;63.99
20656;BME280;10487;53.320;8.672;2022-11-20T03:21:48;100934.31;;;-0.39;63.85
20656;BME280;10487;53.320;8.672;2022-11-20T03:24:50;100932.56;;;-0.41;64.06
20656;BME280;10487;53.320;8.672;2022-11-20T03:27:52;100926.47;;;-0.41;63.94
20656;BME280;10487;53.320;8.672;2022-11-20T03:30:54;100928.28;;;-0.43;64.03
20656;BME280;10487;53.320;8.672;2022-11-20T03:33:57;100929.13;;;-0.43;64.01
20656;BME280;10487;53.320;8.672;2022-11-20T03:36:59;100930.00;;;-0.42;64.07
20656;BME280;10487;53.320;8.672;2022-11-20T03:40:00;100896.81;;;-0.43;63.81
20656;BME280;10487;53.320;8.672;2022-11-20T03:43:02;100895.13;;;-0.46;64.03
20656;BME280;10487;53.320;8.672;2022-11-20T03:46:04;100907.38;;;-0.46;63.76
20656;BME280;10487;53.320;8.672;2022-11-20T03:49:06;100897.81;;;-0.47;64.09
20656;BME280;10487;53.320;8.672;2022-11-20T03:52:08;100872.47;;;-0.48;63.90
20656;BME280;10487;53.320;8.672;2022-11-20T03:55:09;100873.34;;;-0.48;63.87
20656;BME280;10487;53.320;8.672;2022-11-20T03:58:11;100884.69;;;-0.47;64.08
20656;BME280;10487;53.320;8.672;2022-11-20T04:01:21;100889.94;;;-0.47;63.76
20656;BME280;10487;53.320;8.672;2022-11-20T04:04:23;100900.44;;;-0.47;63.78
20656;BME280;10487;53.320;8.672;2022-11-20T04:07:24;100893.44;;;-0.48;63.97
20656;BME280;10487;53.320;8.672;2022-11-20T04:10:26;100907.41;;;-0.48;63.95
20656;BME280;10487;53.320;8.672;2022-11-20T04:13:27;100898.69;;;-0.48;64.03
20656;BME280;10487;53.320;8.672;2022-11-20T04:16:32;100888.19;;;-0.47;63.92
20656;BME280;10487;53.320;8.672;2022-11-20T04:19:34;100904.75;;;-0.46;63.90
20656;BME280;10487;53.320;8.672;2022-11-20T04:22:35;100893.44;;;-0.47;63.86
20656;BME280;10487;53.320;8.672;2022-11-20T04:25:37;100896.88;;;-0.46;63.87
20656;BME280;10487;53.320;8.672;2022-11-20T04:28:39;100889.06;;;-0.48;64.02
20656;BME280;10487;53.320;8.672;2022-11-20T04:31:40;100883.81;;;-0.48;64.00
20656;BME280;10487;53.320;8.672;2022-11-20T04:34:42;100894.25;;;-0.46;63.90
20656;BME280;10487;53.320;8.672;2022-11-20T04:37:43;100889.06;;;-0.48;63.99
20656;BME280;10487;53.320;8.672;2022-11-20T04:40:45;100881.22;;;-0.48;63.80
20656;BME280;10487;53.320;8.672;2022-11-20T04:43:52;100879.44;;;-0.47;63.85
20656;BME280;10487;53.320;8.672;2022-11-20T04:46:53;100881.16;;;-0.46;63.96
20656;BME280;10487;53.320;8.672;2022-11-20T04:49:55;100876.78;;;-0.46;64.01
20656;BME280;10487;53.320;8.672;2022-11-20T04:52:57;100873.28;;;-0.46;63.91
20656;BME280;10487;53.320;8.672;2022-11-20T04:56:03;100874.16;;;-0.46;63.90
20656;BME280;10487;53.320;8.672;2022-11-20T04:59:05;100884.63;;;-0.44;64.06
20656;BME280;10487;53.320;8.672;2022-11-20T05:02:07;100879.38;;;-0.44;63.94
20656;BME280;10487;53.320;8.672;2022-11-20T05:05:08;100876.72;;;-0.43;63.88
20656;BME280;10487;53.320;8.672;2022-11-20T05:08:10;100880.13;;;-0.41;63.94
20656;BME280;10487;53.320;8.672;2022-11-20T05:11:17;100872.28;;;-0.41;63.85
20656;BME280;10487;53.320;8.672;2022-11-20T05:14:19;100881.00;;;-0.40;63.95
20656;BME280;10487;53.320;8.672;2022-11-20T05:17:21;100884.50;;;-0.39;63.90
20656;BME280;10487;53.320;8.672;2022-11-20T05:20:22;100880.13;;;-0.41;63.98
20656;BME280;10487;53.320;8.672;2022-11-20T05:23:25;100874.00;;;-0.39;63.81
20656;BME280;10487;53.320;8.672;2022-11-20T05:26:27;100872.28;;;-0.41;63.94
20656;BME280;10487;53.320;8.672;2022-11-20T05:29:29;100863.53;;;-0.39;63.87
20656;BME280;10487;53.320;8.672;2022-11-20T05:32:30;100873.13;;;-0.40;63.90
20656;BME280;10487;53.320;8.672;2022-11-20T05:35:32;100871.41;;;-0.41;63.73
20656;BME280;10487;53.320;8.672;2022-11-20T05:38:33;100873.09;;;-0.38;63.76
20656;BME280;10487;53.320;8.672;2022-11-20T05:41:35;100855.72;;;-0.10;65.00
20656;BME280;10487;53.320;8.672;2022-11-20T05:44:36;100848.06;;;0.11;64.51
20656;BME280;10487;53.320;8.672;2022-11-20T05:47:38;100857.75;;;0.39;64.56
20656;BME280;10487;53.320;8.672;2022-11-20T05:50:40;100854.75;;;0.51;64.31
20656;BME280;10487;53.320;8.672;2022-11-20T05:53:42;100856.50;;;0.52;64.01
20656;BME280;10487;53.320;8.672;2022-11-20T05:56:48;100849.63;;;0.48;63.94
20656;BME280;10487;53.320;8.672;2022-11-20T05:59:50;100854.16;;;0.43;63.85
20656;BME280;10487;53.320;8.672;2022-11-20T06:02:51;100851.69;;;0.38;63.88
20656;BME280;10487;53.320;8.672;2022-11-20T06:05:53;100841.25;;;0.35;64.01
20656;BME280;10487;53.320;8.672;2022-11-20T06:08:55;100832.59;;;0.32;63.95
20656;BME280;10487;53.320;8.672;2022-11-20T06:11:56;100835.31;;;0.29;63.63
20656;BME280;10487;53.320;8.672;2022-11-20T06:14:59;100828.38;;;0.28;63.69
20656;BME280;10487;53.320;8.672;2022-11-20T06:18:01;100832.81;;;0.26;63.95
20656;BME280;10487;53.320;8.672;2022-11-20T06:21:08;100837.22;;;0.23;63.69
20656;BME280;10487;53.320;8.672;2022-11-20T06:24:11;100825.88;;;0.23;63.70
20656;BME280;10487;53.320;8.672;2022-11-20T06:27:13;100824.16;;;0.22;63.51
20656;BME280;10487;53.320;8.672;2022-11-20T06:30:14;100811.03;;;0.22;63.49
20656;BME280;10487;53.320;8.672;2022-11-20T06:33:16;100816.28;;;0.22;63.67
20656;BME280;10487;53.320;8.672;2022-11-20T06:36:20;100825.88;;;0.23;63.40
20656;BME280;10487;53.320;8.672;2022-11-20T06:39:22;100824.97;;;0.24;63.28
20656;BME280;10487;53.320;8.672;2022-11-20T06:42:24;100810.97;;;0.23;63.38
20656;BME280;10487;53.320;8.672;2022-11-20T06:45:26;100833.09;;;0.44;63.21
20656;BME280;10487;53.320;8.672;2022-11-20T06:48:28;100819.88;;;0.47;63.12
20656;BME280;10487;53.320;8.672;2022-11-20T06:51:30;100819.56;;;0.84;64.33
20656;BME280;10487;53.320;8.672;2022-11-20T06:54:31;100817.50;;;0.95;63.78
20656;BME280;10487;53.320;8.672;2022-11-20T06:57:33;100820.16;;;0.94;63.42
20656;BME280;10487;53.320;8.672;2022-11-20T07:00:34;100818.59;;;0.88;63.60
20656;BME280;10487;53.320;8.672;2022-11-20T07:03:37;100820.53;;;0.81;63.48
20656;BME280;10487;53.320;8.672;2022-11-20T07:06:38;100821.66;;;0.74;63.54
20656;BME280;10487;53.320;8.672;2022-11-20T07:09:40;100821.88;;;0.67;63.50
20656;BME280;10487;53.320;8.672;2022-11-20T07:12:41;100822.13;;;0.59;63.46
20656;BME280;10487;53.320;8.672;2022-11-20T07:15:43;100826.34;;;0.65;64.00
20656;BME280;10487;53.320;8.672;2022-11-20T07:18:44;100823.72;;;0.65;63.82
20656;BME280;10487;53.320;8.672;2022-11-20T07:21:51;100818.63;;;0.59;63.71
20656;BME280;10487;53.320;8.672;2022-11-20T07:24:52;100816.22;;;0.53;63.67
20656;BME280;10487;53.320;8.672;2022-11-20T07:27:58;100823.41;;;0.46;63.55
20656;BME280;10487;53.320;8.672;2022-11-20T07:31:00;100827.09;;;0.41;63.55
20656;BME280;10487;53.320;8.672;2022-11-20T07:34:02;100827.28;;;0.35;63.46
20656;BME280;10487;53.320;8.672;2022-11-20T07:37:03;100834.38;;;0.31;63.74
20656;BME280;10487;53.320;8.672;2022-11-20T07:40:15;100838.88;;;0.28;63.74
20656;BME280;10487;53.320;8.672;2022-11-20T07:43:16;100830.22;;;0.24;63.85
20656;BME280;10487;53.320;8.672;2022-11-20T07:46:18;100841.63;;;0.23;63.73
20656;BME280;10487;53.320;8.672;2022-11-20T07:49:19;100836.41;;;0.21;63.77
20656;BME280;10487;53.320;8.672;2022-11-20T07:52:21;100829.47;;;0.20;63.57
20656;BME280;10487;53.320;8.672;2022-11-20T07:55:23;100826.00;;;0.18;63.81
20656;BME280;10487;53.320;8.672;2022-11-20T07:58:24;100828.69;;;0.17;63.52
20656;BME280;10487;53.320;8.672;2022-11-20T08:01:26;100834.94;;;0.13;63.55
20656;BME280;10487;53.320;8.672;2022-11-20T08:04:28;100833.19;;;0.12;63.84
20656;BME280;10487;53.320;8.672;2022-11-20T08:07:29;100834.13;;;0.11;63.61
20656;BME280;10487;53.320;8.672;2022-11-20T08:10:31;100835.88;;;0.10;63.50
20656;BME280;10487;53.320;8.672;2022-11-20T08:13:32;100828.03;;;0.09;63.87
20656;BME280;10487;53.320;8.672;2022-11-20T08:16:52;100831.59;;;0.08;63.66
20656;BME280;10487;53.320;8.672;2022-11-20T08:19:54;100819.41;;;0.05;63.81
20656;BME280;10487;53.320;8.672;2022-11-20T08:23:00;100826.13;;;0.15;64.09
20656;BME280;10487;53.320;8.672;2022-11-20T08:26:02;100825.78;;;0.26;63.84
20656;BME280;10487;53.320;8.672;2022-11-20T08:29:04;100827.56;;;0.26;63.87
20656;BME280;10487;53.320;8.672;2022-11-20T08:32:06;100823.19;;;0.24;63.66
20656;BME280;10487;53.320;8.672;2022-11-20T08:35:08;100824.16;;;0.22;63.67
20656;BME280;10487;53.320;8.672;2022-11-20T08:38:09;100833.84;;;0.20;63.65
20656;BME280;10487;53.320;8.672;2022-11-20T08:41:11;100838.28;;;0.18;63.77
20656;BME280;10487;53.320;8.672;2022-11-20T08:44:24;100839.22;;;0.15;63.90
20656;BME280;10487;53.320;8.672;2022-11-20T08:47:26;100834.94;;;0.13;63.68
20656;BME280;10487;53.320;8.672;2022-11-20T08:50:28;100833.19;;;0.12;63.77
20656;BME280;10487;53.320;8.672;2022-11-20T08:53:29;100833.25;;;0.10;64.07
20656;BME280;10487;53.320;8.672;2022-11-20T08:56:31;100831.59;;;0.08;63.54
20656;BME280;10487;53.320;8.672;2022-11-20T08:59:33;100833.41;;;0.06;63.52
20656;BME280;10487;53.320;8.672;2022-11-20T09:02:54;100822.13;;;0.02;63.74
20656;BME280;10487;53.320;8.672;2022-11-20T09:05:57;100828.31;;;-0.00;63.90
20656;BME280;10487;53.320;8.672;2022-11-20T09:09:00;100832.69;;;-0.01;63.83
20656;BME280;10487;53.320;8.672;2022-11-20T09:12:07;100831.88;;;-0.03;63.64
20656;BME280;10487;53.320;8.672;2022-11-20T09:15:09;100832.78;;;-0.04;63.92
20656;BME280;10487;53.320;8.672;2022-11-20T09:18:10;100831.09;;;-0.06;63.98
20656;BME280;10487;53.320;8.672;2022-11-20T09:21:13;100829.34;;;-0.06;63.73
20656;BME280;10487;53.320;8.672;2022-11-20T09:24:15;100823.22;;;-0.05;63.78
20656;BME280;10487;53.320;8.672;2022-11-20T09:27:16;100819.72;;;-0.05;63.83
20656;BME280;10487;53.320;8.672;2022-11-20T09:30:25;100833.63;;;-0.03;64.08
20656;BME280;10487;53.320;8.672;2022-11-20T09:33:27;100827.50;;;-0.02;64.29
20656;BME280;10487;53.320;8.672;2022-11-20T09:36:29;100832.75;;;-0.02;63.99
20656;BME280;10487;53.320;8.672;2022-11-20T09:39:30;100824.00;;;-0.03;64.00
20656;BME280;10487;53.320;8.672;2022-11-20T09:42:51;100832.75;;;-0.02;63.78
20656;BME280;10487;53.320;8.672;2022-11-20T09:55:54;100827.28;;;0.05;63.95
20656;BME280;10487;53.320;8.672;2022-11-20T09:59:04;100826.38;;;0.06;63.76
20656;BME280;10487;53.320;8.672;2022-11-20T10:05:30;100817.50;;;0.10;63.98
20656;BME280;10487;53.320;8.672;2022-11-20T10:08:42;100813.94;;;0.13;63.97
20656;BME280;10487;53.320;8.672;2022-11-20T10:11:51;100814.69;;;0.16;63.86
20656;BME280;10487;53.320;8.672;2022-11-20T10:25:20;100813.50;;;0.27;63.81
20656;BME280;10487;53.320;8.672;2022-11-20T10:31:35;100807.16;;;0.34;63.80
20656;BME280;10487;53.320;8.672;2022-11-20T10:34:58;100812.34;;;0.37;63.75
20656;BME280;10487;53.320;8.672;2022-11-20T10:38:05;100811.44;;;0.38;63.74
20656;BME280;10487;53.320;8.672;2022-11-20T10:41:17;100806.13;;;0.39;63.80
20656;BME280;10487;53.320;8.672;2022-11-20T10:44:28;100793.81;;;0.41;63.76
20656;BME280;10487;53.320;8.672;2022-11-20T10:51:30;100795.59;;;0.41;63.65
20656;BME280;10487;53.320;8.672;2022-11-20T10:54:59;100797.34;;;0.40;63.77
20656;BME280;10487;53.320;8.672;2022-11-20T11:01:19;100790.28;;;0.42;64.06
20656;BME280;10487;53.320;8.672;2022-11-20T11:04:40;100795.47;;;0.44;63.76
20656;BME280;10487;53.320;8.672;2022-11-20T11:07:45;100782.91;;;0.53;64.31
20656;BME280;10487;53.320;8.672;2022-11-20T11:10:57;100781.53;;;0.69;64.33
20656;BME280;10487;53.320;8.672;2022-11-20T11:14:15;100783.19;;;0.72;63.84
20656;BME280;10487;53.320;8.672;2022-11-20T11:17:21;100786.72;;;0.71;64.01
20656;BME280;10487;53.320;8.672;2022-11-20T11:20:24;100791.09;;;0.72;64.07
20656;BME280;10487;53.320;8.672;2022-11-20T11:26:37;100787.69;;;0.68;63.96
20656;BME280;10487;53.320;8.672;2022-11-20T11:29:39;100787.69;;;0.68;63.72
20656;BME280;10487;53.320;8.672;2022-11-20T11:32:41;100792.94;;;0.68;63.80
20656;BME280;10487;53.320;8.672;2022-11-20T11:35:49;100790.38;;;0.67;63.70
20656;BME280;10487;53.320;8.672;2022-11-20T11:38:52;100781.69;;;0.65;64.04
20656;BME280;10487;53.320;8.672;2022-11-20T11:41:55;100780.81;;;0.64;64.06
20656;BME280;10487;53.320;8.672;2022-11-20T11:44:59;100774.75;;;0.62;63.76
20656;BME280;10487;53.320;8.672;2022-11-20T11:48:08;100770.47;;;0.60;63.85
20656;BME280;10487;53.320;8.672;2022-11-20T11:51:10;100768.75;;;0.59;63.81
20656;BME280;10487;53.320;8.672;2022-11-20T12:01:38;100769.66;;;0.58;63.81
20656;BME280;10487;53.320;8.672;2022-11-20T12:04:50;100764.41;;;0.58;64.05
20656;BME280;10487;53.320;8.672;2022-11-20T12:08:18;100760.94;;;0.57;64.20
20656;BME280;10487;53.320;8.672;2022-11-20T12:15:29;100758.31;;;0.57;63.78
20656;BME280;10487;53.320;8.672;2022-11-20T12:18:31;100755.59;;;0.59;64.06
20656;BME280;10487;53.320;8.672;2022-11-20T12:58:32;100726.38;;;0.69;63.66
20656;BME280;10487;53.320;8.672;2022-11-20T13:01:48;100719.31;;;0.71;63.78
20656;BME280;10487;53.320;8.672;2022-11-20T13:08:23;100715.69;;;0.75;64.00
20656;BME280;10487;53.320;8.672;2022-11-20T13:11:41;100718.25;;;0.77;64.02
20656;BME280;10487;53.320;8.672;2022-11-20T13:17:58;100711.31;;;0.74;63.64
20656;BME280;10487;53.320;8.672;2022-11-20T13:21:00;100708.63;;;0.76;63.83
20656;BME280;10487;53.320;8.672;2022-11-20T13:27:27;100703.06;;;0.86;63.81
20656;BME280;10487;53.320;8.672;2022-11-20T13:30:33;100704.72;;;0.89;63.70
20656;BME280;10487;53.320;8.672;2022-11-20T13:33:37;100703.66;;;0.95;63.75
20656;BME280;10487;53.320;8.672;2022-11-20T13:36:52;100696.41;;;1.01;63.94
20656;BME280;10487;53.320;8.672;2022-11-20T13:40:24;100706.72;;;1.07;64.07
20656;BME280;10487;53.320;8.672;2022-11-20T13:46:46;100708.38;;;1.10;63.74
20656;BME280;10487;53.320;8.672;2022-11-20T13:49:49;100700.50;;;1.10;63.79
20656;BME280;10487;53.320;8.672;2022-11-20T13:56:48;100687.41;;;1.08;63.98
20656;BME280;10487;53.320;8.672;2022-11-20T14:00:09;100677.72;;;1.10;64.05
20656;BME280;10487;53.320;8.672;2022-11-20T14:03:21;100676.84;;;1.10;63.92
20656;BME280;10487;53.320;8.672;2022-11-20T14:06:44;100670.72;;;1.09;63.99
20656;BME280;10487;53.320;8.672;2022-11-20T14:09:52;100668.03;;;1.11;64.04
20656;BME280;10487;53.320;8.672;2022-11-20T14:12:55;100666.38;;;1.08;63.98
20656;BME280;10487;53.320;8.672;2022-11-20T14:15:57;100670.78;;;1.08;63.66
20656;BME280;10487;53.320;8.672;2022-11-20T14:22:23;100659.53;;;1.04;63.60
20656;BME280;10487;53.320;8.672;2022-11-20T14:25:26;100658.75;;;1.01;63.77
20656;BME280;10487;53.320;8.672;2022-11-20T14:28:32;100656.19;;;0.99;63.87
20656;BME280;10487;53.320;8.672;2022-11-20T14:31:34;100650.94;;;0.99;63.93
20656;BME280;10487;53.320;8.672;2022-11-20T14:34:38;100656.19;;;0.99;63.58
20656;BME280;10487;53.320;8.672;2022-11-20T14:37:41;100657.97;;;0.99;63.74
20656;BME280;10487;53.320;8.672;2022-11-20T14:40:43;100654.47;;;0.98;63.92
20656;BME280;10487;53.320;8.672;2022-11-20T14:43:56;100643.97;;;0.98;63.70
20656;BME280;10487;53.320;8.672;2022-11-20T14:47:00;100630.97;;;0.95;63.54
20656;BME280;10487;53.320;8.672;2022-11-20T14:50:02;100629.34;;;0.91;63.87
20656;BME280;10487;53.320;8.672;2022-11-20T14:53:10;100622.47;;;0.87;64.05
20656;BME280;10487;53.320;8.672;2022-11-20T14:56:11;100617.41;;;0.81;63.85
20656;BME280;10487;53.320;8.672;2022-11-20T14:59:32;100617.63;;;0.75;63.94
20656;BME280;10487;53.320;8.672;2022-11-20T15:02:38;100614.25;;;0.71;63.85
20656;BME280;10487;53.320;8.672;2022-11-20T15:05:48;100606.59;;;0.65;63.88
20656;BME280;10487;53.320;8.672;2022-11-20T15:08:51;100600.59;;;0.62;63.58
20656;BME280;10487;53.320;8.672;2022-11-20T15:12:04;100596.41;;;0.56;63.64
20656;BME280;10487;53.320;8.672;2022-11-20T15:15:08;100592.28;;;0.49;63.60
20656;BME280;10487;53.320;8.672;2022-11-20T15:18:32;100591.63;;;0.43;63.76
20656;BME280;10487;53.320;8.672;2022-11-20T15:21:37;100595.31;;;0.37;63.69
20656;BME280;10487;53.320;8.672;2022-11-20T15:24:39;100596.03;;;0.42;63.88
20656;BME280;10487;53.320;8.672;2022-11-20T15:27:41;100606.63;;;0.39;63.95
20656;BME280;10487;53.320;8.672;2022-11-20T15:30:45;100601.53;;;0.35;63.84
20656;BME280;10487;53.320;8.672;2022-11-20T15:33:47;100594.72;;;0.29;63.57
20656;BME280;10487;53.320;8.672;2022-11-20T15:36:48;100593.97;;;0.26;63.65
20656;BME280;10487;53.320;8.672;2022-11-20T15:39:50;100587.09;;;0.21;63.64
20656;BME280;10487;53.320;8.672;2022-11-20T15:42:52;100585.50;;;0.17;63.88
20656;BME280;10487;53.320;8.672;2022-11-20T15:46:25;100580.34;;;0.14;63.72
20656;BME280;10487;53.320;8.672;2022-11-20T15:49:28;100584.84;;;0.11;63.78
20656;BME280;10487;53.320;8.672;2022-11-20T15:52:30;100581.47;;;0.07;63.83
20656;BME280;10487;53.320;8.672;2022-11-20T15:55:42;100573.75;;;0.03;63.65
20656;BME280;10487;53.320;8.672;2022-11-20T15:58:43;100573.03;;;-0.02;63.36
20656;BME280;10487;53.320;8.672;2022-11-20T16:01:45;100564.47;;;-0.07;63.49
20656;BME280;10487;53.320;8.672;2022-11-20T16:04:47;100568.06;;;-0.11;63.55
20656;BME280;10487;53.320;8.672;2022-11-20T16:07:50;100564.72;;;-0.15;63.28
20656;BME280;10487;53.320;8.672;2022-11-20T16:10:52;100566.56;;;-0.18;63.26
20656;BME280;10487;53.320;8.672;2022-11-20T16:13:54;100562.28;;;-0.21;63.32
20656;BME280;10487;53.320;8.672;2022-11-20T16:17:14;100559.88;;;-0.27;63.39
20656;BME280;10487;53.320;8.672;2022-11-20T16:20:15;100554.00;;;-0.35;63.05
20656;BME280;10487;53.320;8.672;2022-11-20T16:23:17;100548.94;;;-0.41;63.39
20656;BME280;10487;53.320;8.672;2022-11-20T16:26:19;100549.06;;;-0.44;63.36
20656;BME280;10487;53.320;8.672;2022-11-20T16:29:22;100549.94;;;-0.45;63.27
20656;BME280;10487;53.320;8.672;2022-11-20T16:32:23;100541.38;;;-0.50;63.22
20656;BME280;10487;53.320;8.672;2022-11-20T16:35:26;100536.28;;;-0.55;63.28
20656;BME280;10487;53.320;8.672;2022-11-20T16:38:28;100539.06;;;-0.59;63.31
20656;BME280;10487;53.320;8.672;2022-11-20T16:41:31;100543.44;;;-0.60;63.32
20656;BME280;10487;53.320;8.672;2022-11-20T16:44:33;100545.16;;;-0.59;63.31
20656;BME280;10487;53.320;8.672;2022-11-20T16:47:35;100553.06;;;-0.60;63.29
20656;BME280;10487;53.320;8.672;2022-11-20T16:50:44;100540.19;;;-0.68;63.18
20656;BME280;10487;53.320;8.672;2022-11-20T16:53:46;100548.25;;;-0.74;63.27
20656;BME280;10487;53.320;8.672;2022-11-20T16:56:47;100556.91;;;-0.72;63.44
20656;BME280;10487;53.320;8.672;2022-11-20T16:59:51;100548.00;;;-0.66;63.35
20656;BME280;10487;53.320;8.672;2022-11-20T17:02:53;100547.00;;;-0.62;63.15
20656;BME280;10487;53.320;8.672;2022-11-20T17:05:54;100542.66;;;-0.63;62.96
20656;BME280;10487;53.320;8.672;2022-11-20T17:08:57;100541.03;;;-0.67;63.08
20656;BME280;10487;53.320;8.672;2022-11-20T17:11:58;100547.31;;;-0.73;62.83
20656;BME280;10487;53.320;8.672;2022-11-20T17:15:00;100538.59;;;-0.73;63.26
20656;BME280;10487;53.320;8.672;2022-11-20T17:18:02;100537.72;;;-0.72;63.16
20656;BME280;10487;53.320;8.672;2022-11-20T17:21:04;100547.25;;;-0.70;63.07
20656;BME280;10487;53.320;8.672;2022-11-20T17:24:08;100539.38;;;-0.70;63.07
20656;BME280;10487;53.320;8.672;2022-11-20T17:27:10;100540.16;;;-0.66;63.24
20656;BME280;10487;53.320;8.672;2022-11-20T17:30:12;100533.19;;;-0.67;63.03
20656;BME280;10487;53.320;8.672;2022-11-20T17:33:14;100523.72;;;-0.71;62.89
20656;BME280;10487;53.320;8.672;2022-11-20T17:36:16;100510.69;;;-0.74;63.06
20656;BME280;10487;53.320;8.672;2022-11-20T17:39:18;100508.97;;;-0.75;62.85
20656;BME280;10487;53.320;8.672;2022-11-20T17:42:20;100504.69;;;-0.78;63.15
20656;BME280;10487;53.320;8.672;2022-11-20T17:45:27;100491.59;;;-0.78;62.96
20656;BME280;10487;53.320;8.672;2022-11-20T17:48:29;100494.25;;;-0.79;63.13
20656;BME280;10487;53.320;8.672;2022-11-20T17:51:32;100496.06;;;-0.81;62.95
20656;BME280;10487;53.320;8.672;2022-11-20T17:54:35;100500.50;;;-0.83;63.13
20656;BME280;10487;53.320;8.672;2022-11-20T17:57:37;100500.63;;;-0.88;63.07
20656;BME280;10487;53.320;8.672;2022-11-20T18:00:53;100488.59;;;-0.93;63.10